Time,TemperatureF,DewpointF,PressureIn,WindDirection,WindDirectionDegrees,WindSpeedMPH,WindSpeedGustMPH,Humidity,HourlyPrecipIn,Conditions,Clouds,dailyrainin,SolarRadiationWatts/m^2,SoftwareType,DateUTC
2013-07-02 00:11:00,74.0,65.0,-100.00,NNE,15,0.0,3.0,74,-99.99,,,0.00,0.000000,,2013-07-02 05:11:00,
2013-07-02 00:22:00,74.0,65.0,-100.00,NNE,15,0.0,3.0,74,-99.99,,,0.00,0.000000,,2013-07-02 05:22:00,
2013-07-02 00:32:00,74.0,65.0,-100.00,NNE,15,0.0,3.0,74,-99.99,,,0.00,0.000000,,2013-07-02 05:32:00,
2013-07-02 00:43:00,74.0,65.0,-100.00,NNE,15,0.0,3.0,74,-99.99,,,0.00,0.000000,,2013-07-02 05:43:00,
2013-07-02 00:50:00,73.0,66.0,-100.00,North,3,2.0,4.0,78,0.00,,,0.00,0.000000,,2013-07-02 05:50:00,
2013-07-02 01:12:00,73.0,66.0,-100.00,North,3,2.0,4.0,78,0.00,,,0.00,0.000000,,2013-07-02 06:12:00,
2013-07-02 01:23:00,73.0,66.0,-100.00,North,3,2.0,4.0,78,0.00,,,0.00,0.000000,,2013-07-02 06:23:00,
2013-07-02 01:34:00,73.0,66.0,-100.00,North,3,2.0,4.0,78,0.00,,,0.00,0.000000,,2013-07-02 06:34:00,
2013-07-02 01:43:00,73.0,66.0,-100.00,North,3,2.0,4.0,78,0.00,,,0.00,0.000000,,2013-07-02 06:43:00,
2013-07-02 01:50:00,72.0,65.0,-100.00,North,10,2.0,5.0,80,0.00,,,0.00,0.000000,,2013-07-02 06:50:00,
2013-07-02 02:12:00,72.0,65.0,-100.00,North,10,2.0,5.0,80,0.00,,,0.00,0.000000,,2013-07-02 07:12:00,
2013-07-02 02:22:00,72.0,65.0,-100.00,North,10,2.0,5.0,80,0.00,,,0.00,0.000000,,2013-07-02 07:22:00,
2013-07-02 02:34:00,72.0,65.0,-100.00,North,10,2.0,5.0,80,0.00,,,0.00,0.000000,,2013-07-02 07:34:00,
2013-07-02 02:44:00,72.0,65.0,-100.00,North,10,2.0,5.0,80,0.00,,,0.00,0.000000,,2013-07-02 07:44:00,
2013-07-02 03:50:00,70.0,64.0,-100.00,North,5,3.0,5.0,82,-99.99,,,0.00,0.000000,,2013-07-02 08:50:00,
2013-07-02 04:11:00,70.0,64.0,-100.00,North,5,3.0,5.0,82,-99.99,,,0.00,0.000000,,2013-07-02 09:11:00,
2013-07-02 04:23:00,70.0,64.0,-100.00,North,5,3.0,5.0,82,-99.99,,,0.00,0.000000,,2013-07-02 09:23:00,
2013-07-02 04:33:00,70.0,64.0,-100.00,North,5,3.0,5.0,82,-99.99,,,0.00,0.000000,,2013-07-02 09:33:00,
2013-07-02 04:43:00,70.0,64.0,-100.00,North,5,3.0,5.0,82,-99.99,,,0.00,0.000000,,2013-07-02 09:43:00,
2013-07-02 04:50:00,70.0,65.0,-100.00,North,5,4.0,6.0,84,0.00,,,0.00,0.000000,,2013-07-02 09:50:00,
2013-07-02 05:11:00,70.0,65.0,-100.00,North,5,4.0,6.0,84,0.00,,,0.00,0.000000,,2013-07-02 10:11:00,
2013-07-02 05:22:00,70.0,65.0,-100.00,North,5,4.0,6.0,84,0.00,,,0.00,0.000000,,2013-07-02 10:22:00,
2013-07-02 05:33:00,70.0,65.0,-100.00,North,5,4.0,6.0,84,0.00,,,0.00,0.000000,,2013-07-02 10:33:00,
2013-07-02 05:44:00,70.0,65.0,-100.00,North,5,4.0,6.0,84,0.00,,,0.00,0.000000,,2013-07-02 10:44:00,
2013-07-02 05:50:00,70.0,64.0,-100.00,NE,34,3.0,7.0,82,0.00,,,0.00,0.000000,,2013-07-02 10:50:00,
2013-07-02 06:22:00,70.0,64.0,-100.00,NE,34,3.0,7.0,82,0.00,,,0.00,0.000000,,2013-07-02 11:22:00,
2013-07-02 06:33:00,70.0,64.0,-100.00,NE,34,3.0,7.0,82,0.00,,,0.00,0.000000,,2013-07-02 11:33:00,
2013-07-02 06:42:00,70.0,64.0,-100.00,NE,34,3.0,7.0,82,0.00,,,0.00,0.000000,,2013-07-02 11:42:00,
2013-07-02 06:50:00,72.0,66.0,-100.00,North,357,4.0,6.0,81,0.00,,,0.00,37.000000,,2013-07-02 11:50:00,
2013-07-02 07:11:00,72.0,66.0,-100.00,North,357,4.0,6.0,81,0.00,,,0.00,37.000000,,2013-07-02 12:11:00,
2013-07-02 07:23:00,72.0,66.0,-100.00,North,357,4.0,6.0,81,0.00,,,0.00,37.000000,,2013-07-02 12:23:00,
2013-07-02 07:33:00,72.0,66.0,-100.00,North,357,4.0,6.0,81,0.00,,,0.00,37.000000,,2013-07-02 12:33:00,
2013-07-02 07:43:00,72.0,66.0,-100.00,North,357,4.0,6.0,81,0.00,,,0.00,37.000000,,2013-07-02 12:43:00,
2013-07-02 07:50:00,76.0,67.0,-100.00,NNE,24,4.0,7.0,75,0.00,,,0.00,197.000000,,2013-07-02 12:50:00,
2013-07-02 08:11:00,76.0,67.0,-100.00,NNE,24,4.0,7.0,75,0.00,,,0.00,197.000000,,2013-07-02 13:11:00,
2013-07-02 08:22:00,76.0,67.0,-100.00,NNE,24,4.0,7.0,75,0.00,,,0.00,197.000000,,2013-07-02 13:22:00,
2013-07-02 08:34:00,76.0,67.0,-100.00,NNE,24,4.0,7.0,75,0.00,,,0.00,197.000000,,2013-07-02 13:34:00,
2013-07-02 08:43:00,76.0,67.0,-100.00,NNE,24,4.0,7.0,75,0.00,,,0.00,197.000000,,2013-07-02 13:43:00,
2013-07-02 08:50:00,80.0,67.0,-100.00,NE,44,5.0,9.0,65,0.00,,,0.00,376.000000,,2013-07-02 13:50:00,
2013-07-02 09:11:00,80.0,67.0,-100.00,NE,44,5.0,9.0,65,0.00,,,0.00,376.000000,,2013-07-02 14:11:00,
2013-07-02 09:22:00,80.0,67.0,-100.00,NE,44,5.0,9.0,65,0.00,,,0.00,376.000000,,2013-07-02 14:22:00,
2013-07-02 09:33:00,80.0,67.0,-100.00,NE,44,5.0,9.0,65,0.00,,,0.00,376.000000,,2013-07-02 14:33:00,
2013-07-02 09:43:00,80.0,67.0,-100.00,NE,44,5.0,9.0,65,0.00,,,0.00,376.000000,,2013-07-02 14:43:00,
2013-07-02 09:50:00,84.0,67.0,-100.00,NNE,19,3.0,8.0,56,0.00,,,0.00,591.000000,,2013-07-02 14:50:00,
2013-07-02 10:22:00,84.0,67.0,-100.00,NNE,19,3.0,8.0,56,0.00,,,0.00,591.000000,,2013-07-02 15:22:00,
2013-07-02 10:33:00,84.0,67.0,-100.00,NNE,19,3.0,8.0,56,0.00,,,0.00,591.000000,,2013-07-02 15:33:00,
2013-07-02 10:44:00,84.0,67.0,-100.00,NNE,19,3.0,8.0,56,0.00,,,0.00,591.000000,,2013-07-02 15:44:00,
2013-07-02 10:50:00,87.0,66.0,-100.00,ENE,68,3.0,8.0,50,0.00,,,-99.99,722.000000,,2013-07-02 15:50:00,
2013-07-02 11:22:00,87.0,66.0,-100.00,ENE,68,3.0,8.0,50,0.00,,,-99.99,722.000000,,2013-07-02 16:22:00,
2013-07-02 11:33:00,87.0,66.0,-100.00,ENE,68,3.0,8.0,50,0.00,,,-99.99,722.000000,,2013-07-02 16:33:00,
2013-07-02 11:43:00,87.0,66.0,-100.00,ENE,68,3.0,8.0,50,0.00,,,-99.99,722.000000,,2013-07-02 16:43:00,
2013-07-02 11:50:00,90.0,65.0,-100.00,SE,130,2.0,9.0,44,0.00,,,0.00,856.000000,,2013-07-02 16:50:00,
2013-07-02 12:12:00,90.0,65.0,-100.00,SE,130,2.0,9.0,44,0.00,,,0.00,856.000000,,2013-07-02 17:12:00,
2013-07-02 12:22:00,90.0,65.0,-100.00,SE,130,2.0,9.0,44,0.00,,,0.00,856.000000,,2013-07-02 17:22:00,
2013-07-02 12:33:00,90.0,65.0,-100.00,SE,130,2.0,9.0,44,0.00,,,0.00,856.000000,,2013-07-02 17:33:00,
2013-07-02 12:43:00,90.0,65.0,-100.00,SE,130,2.0,9.0,44,0.00,,,0.00,856.000000,,2013-07-02 17:43:00,
2013-07-02 12:50:00,88.0,65.0,-100.00,SE,145,1.0,8.0,47,0.00,,,0.00,456.000000,,2013-07-02 17:50:00,
2013-07-02 13:12:00,88.0,65.0,-100.00,SE,145,1.0,8.0,47,0.00,,,0.00,456.000000,,2013-07-02 18:12:00,
2013-07-02 13:23:00,88.0,65.0,-100.00,SE,145,1.0,8.0,47,0.00,,,0.00,456.000000,,2013-07-02 18:23:00,
2013-07-02 13:34:00,88.0,65.0,-100.00,SE,145,1.0,8.0,47,0.00,,,0.00,456.000000,,2013-07-02 18:34:00,
2013-07-02 13:43:00,88.0,65.0,-100.00,SE,145,1.0,8.0,47,0.00,,,0.00,456.000000,,2013-07-02 18:43:00,
2013-07-02 13:50:00,88.0,64.0,-100.00,East,85,1.0,9.0,45,0.00,,,0.00,645.000000,,2013-07-02 18:50:00,
2013-07-02 14:22:00,88.0,64.0,-100.00,East,85,1.0,9.0,45,0.00,,,0.00,645.000000,,2013-07-02 19:22:00,
2013-07-02 14:34:00,88.0,64.0,-100.00,East,85,1.0,9.0,45,0.00,,,0.00,645.000000,,2013-07-02 19:34:00,
2013-07-02 14:43:00,88.0,64.0,-100.00,East,85,1.0,9.0,45,0.00,,,0.00,645.000000,,2013-07-02 19:43:00,
2013-07-02 14:50:00,87.0,65.0,-100.00,SSW,210,5.0,10.0,49,0.00,,,0.00,633.000000,,2013-07-02 19:50:00,
2013-07-02 15:11:00,87.0,65.0,-100.00,SSW,210,5.0,10.0,49,0.00,,,0.00,633.000000,,2013-07-02 20:11:00,
2013-07-02 15:22:00,87.0,65.0,-100.00,SSW,210,5.0,10.0,49,0.00,,,0.00,633.000000,,2013-07-02 20:22:00,
2013-07-02 15:33:00,87.0,65.0,-100.00,SSW,210,5.0,10.0,49,0.00,,,0.00,633.000000,,2013-07-02 20:33:00,
2013-07-02 15:43:00,87.0,65.0,-100.00,SSW,210,5.0,10.0,49,0.00,,,0.00,633.000000,,2013-07-02 20:43:00,
2013-07-02 15:50:00,87.0,66.0,-100.00,NW,320,3.0,6.0,50,0.00,,,0.00,443.000000,,2013-07-02 20:50:00,
2013-07-02 16:22:00,87.0,66.0,-100.00,NW,320,3.0,6.0,50,0.00,,,0.00,443.000000,,2013-07-02 21:22:00,
2013-07-02 16:33:00,87.0,66.0,-100.00,NW,320,3.0,6.0,50,0.00,,,0.00,443.000000,,2013-07-02 21:33:00,
2013-07-02 16:44:00,87.0,66.0,-100.00,NW,320,3.0,6.0,50,0.00,,,0.00,443.000000,,2013-07-02 21:44:00,
2013-07-02 16:50:00,85.0,67.0,-100.00,South,184,1.0,6.0,55,0.00,,,0.00,118.000000,,2013-07-02 21:50:00,
2013-07-02 17:22:00,85.0,67.0,-100.00,South,184,1.0,6.0,55,0.00,,,0.00,118.000000,,2013-07-02 22:22:00,
2013-07-02 17:34:00,85.0,67.0,-100.00,South,184,1.0,6.0,55,0.00,,,0.00,118.000000,,2013-07-02 22:34:00,
2013-07-02 17:43:00,85.0,67.0,-100.00,South,184,1.0,6.0,55,0.00,,,0.00,118.000000,,2013-07-02 22:43:00,
2013-07-02 17:50:00,79.0,68.0,-100.00,North,5,7.0,18.0,69,0.00,,,-99.99,148.000000,,2013-07-02 22:50:00,
2013-07-02 18:12:00,79.0,68.0,-100.00,North,5,7.0,18.0,69,0.00,,,-99.99,148.000000,,2013-07-02 23:12:00,
2013-07-02 18:22:00,79.0,68.0,-100.00,North,5,7.0,18.0,69,0.00,,,-99.99,148.000000,,2013-07-02 23:22:00,
2013-07-02 18:33:00,79.0,68.0,-100.00,North,5,7.0,18.0,69,0.00,,,-99.99,148.000000,,2013-07-02 23:33:00,
2013-07-02 18:44:00,79.0,68.0,-100.00,North,5,7.0,18.0,69,0.00,,,-99.99,148.000000,,2013-07-02 23:44:00,
2013-07-02 18:50:00,78.0,69.0,-100.00,NE,39,2.0,12.0,74,0.00,,,0.00,132.000000,,2013-07-02 23:50:00,
2013-07-02 19:11:00,78.0,69.0,-100.00,NE,39,2.0,12.0,74,0.00,,,0.00,132.000000,,2013-07-03 00:11:00,
2013-07-02 19:22:00,78.0,69.0,-100.00,NE,39,2.0,12.0,74,0.00,,,0.00,132.000000,,2013-07-03 00:22:00,
2013-07-02 19:33:00,78.0,69.0,-100.00,NE,39,2.0,12.0,74,0.00,,,0.00,132.000000,,2013-07-03 00:33:00,
2013-07-02 19:44:00,78.0,69.0,-100.00,NE,39,2.0,12.0,74,0.00,,,0.00,132.000000,,2013-07-03 00:44:00,
2013-07-02 19:50:00,77.0,67.0,-100.00,ESE,120,3.0,6.0,72,0.00,,,0.00,53.000000,,2013-07-03 00:50:00,
2013-07-02 20:11:00,77.0,67.0,-100.00,ESE,120,3.0,6.0,72,0.00,,,0.00,53.000000,,2013-07-03 01:11:00,
2013-07-02 20:22:00,77.0,67.0,-100.00,ESE,120,3.0,6.0,72,0.00,,,0.00,53.000000,,2013-07-03 01:22:00,
2013-07-02 20:33:00,77.0,67.0,-100.00,ESE,120,3.0,6.0,72,0.00,,,0.00,53.000000,,2013-07-03 01:33:00,
2013-07-02 20:42:00,77.0,67.0,-100.00,ESE,120,3.0,6.0,72,0.00,,,0.00,53.000000,,2013-07-03 01:42:00,
2013-07-02 21:14:00,76.0,68.0,-100.00,NNW,339,1.0,3.0,77,0.00,,,0.00,4.000000,,2013-07-03 02:14:00,
2013-07-02 21:27:00,76.0,68.0,-100.00,NNW,339,1.0,3.0,77,0.00,,,0.00,4.000000,,2013-07-03 02:27:00,
2013-07-02 21:39:00,76.0,68.0,-100.00,NNW,339,1.0,3.0,77,0.00,,,0.00,4.000000,,2013-07-03 02:39:00,
2013-07-02 21:44:00,76.0,68.0,-100.00,NNW,339,1.0,3.0,77,0.00,,,0.00,4.000000,,2013-07-03 02:44:00,
2013-07-02 21:50:00,73.0,68.0,-100.00,ENE,58,1.0,3.0,85,0.00,,,0.00,0.000000,,2013-07-03 02:50:00,
2013-07-02 22:13:00,73.0,68.0,-100.00,ENE,58,1.0,3.0,85,0.00,,,0.00,0.000000,,2013-07-03 03:13:00,
2013-07-02 22:25:00,73.0,68.0,-100.00,ENE,58,1.0,3.0,85,0.00,,,0.00,0.000000,,2013-07-03 03:25:00,
2013-07-02 22:50:00,74.0,70.0,-100.00,WNW,300,0.0,5.0,86,0.00,,,-99.99,0.000000,,2013-07-03 03:50:00,
2013-07-02 23:11:00,74.0,70.0,-100.00,WNW,300,0.0,5.0,86,0.00,,,-99.99,0.000000,,2013-07-03 04:11:00,
2013-07-02 23:22:00,74.0,70.0,-100.00,WNW,300,0.0,5.0,86,0.00,,,-99.99,0.000000,,2013-07-03 04:22:00,
2013-07-02 23:33:00,74.0,70.0,-100.00,WNW,300,0.0,5.0,86,0.00,,,-99.99,0.000000,,2013-07-03 04:33:00,
2013-07-02 23:43:00,74.0,70.0,-100.00,WNW,300,0.0,5.0,86,0.00,,,-99.99,0.000000,,2013-07-03 04:43:00,
2013-07-02 23:50:00,73.0,69.0,-100.00,North,5,4.0,7.0,88,0.00,,,0.00,0.000000,,2013-07-03 04:50:00,